Terminal Aerodrome Forecast
Issued by NWS

Home | Current Version | Previous Version | Text Only | Print | Product List | Glossary On
Versions: 1 2 3 4 5 6 7 8 9 10 11 12 13 14 15 16
641
FTUS45 KTFX 222346 CCA
TAFHVR
TAF COR
KHVR 222346Z 2300/2324 06010KT 6SM BR VCSH SCT020 OVC035
      TEMPO 2300/2304 5SM -SHSN BR BKN020
     FM230400 05009KT 6SM -SHSN BR SCT015 OVC025 PROB30 2309/2315
      4SM -SHSN BR BKN015
     FM231800 04008KT P6SM SCT025 BKN040=

USA.gov is the U.S. government's official web portal to all federal, state and local government web resources and services.